Time;durP1;ratioP1;P1;durP2;ratioP2;P2;SDS_P1;SDS_P2;PMS_P1;PMS_P2;Temp;Humidity;BMP_temperature;BMP_pressure;BME280_temperature;BME280_humidity;BME280_pressure;Samples;Min_cycle;Max_cycle;Signal;HPM_P1;HPM_P2
2022/07/08 00:02:22;;;;;;;4.00;2.13;;;;;;;;;;5082813;28;20123;-69
2022/07/08 00:04:48;;;;;;;3.03;2.17;;;;;;;;;;5089991;28;20052;-75
2022/07/08 00:07:15;;;;;;;4.30;2.33;;;;;;;;;;5081689;28;20017;-69
2022/07/08 00:09:41;;;;;;;5.13;2.00;;;;;;;;;;5081219;28;20050;-69
2022/07/08 00:12:07;;;;;;;6.43;2.55;;;;;;;;;;5085893;28;20032;-70
2022/07/08 00:14:33;;;;;;;3.60;2.30;;;;;;;;;;5089113;28;20056;-69
2022/07/08 00:16:59;;;;;;;3.50;2.50;;;;;;;;;;5078498;28;20036;-76
2022/07/08 00:19:25;;;;;;;3.63;2.30;;;;;;;;;;5087091;28;20004;-68
2022/07/08 00:21:51;;;;;;;3.90;2.30;;;;;;;;;;5081814;28;20037;-68
2022/07/08 00:24:18;;;;;;;3.40;2.40;;;;;;;;;;5083679;28;20048;-69
2022/07/08 00:26:44;;;;;;;3.03;2.40;;;;;;;;;;5072564;28;20053;-69
2022/07/08 00:29:10;;;;;;;3.53;2.25;;;;;;;;;;5092596;28;20029;-68
2022/07/08 00:31:37;;;;;;;7.65;2.50;;;;;;;;;;5089507;28;20039;-70
2022/07/08 00:34:03;;;;;;;3.20;2.30;;;;;;;;;;5080979;28;20078;-72
2022/07/08 00:36:29;;;;;;;3.42;2.20;;;;;;;;;;5080500;28;20025;-76
2022/07/08 00:38:55;;;;;;;3.50;2.40;;;;;;;;;;5072293;28;20028;-69
2022/07/08 00:41:21;;;;;;;2.85;2.28;;;;;;;;;;5082103;28;20144;-72
2022/07/08 00:43:48;;;;;;;5.22;2.30;;;;;;;;;;5073828;28;20029;-69
2022/07/08 00:46:15;;;;;;;4.28;2.10;;;;;;;;;;5091163;28;20025;-74
2022/07/08 00:48:42;;;;;;;2.53;2.30;;;;;;;;;;5086360;28;20021;-68
2022/07/08 00:51:09;;;;;;;4.65;2.20;;;;;;;;;;5083214;28;20042;-69
2022/07/08 00:53:38;;;;;;;4.43;2.20;;;;;;;;;;5090342;28;20019;-76
2022/07/08 00:56:04;;;;;;;4.10;2.30;;;;;;;;;;5065988;28;20017;-72
2022/07/08 00:58:31;;;;;;;7.18;2.80;;;;;;;;;;5090545;28;20077;-69
2022/07/08 01:00:57;;;;;;;4.47;2.40;;;;;;;;;;5088214;28;20005;-68
2022/07/08 01:03:23;;;;;;;3.58;2.30;;;;;;;;;;5084440;28;20019;-76
2022/07/08 01:05:49;;;;;;;3.72;2.30;;;;;;;;;;5083795;28;20123;-68
2022/07/08 01:08:15;;;;;;;5.10;2.60;;;;;;;;;;5083548;28;20024;-77
2022/07/08 01:10:42;;;;;;;5.32;2.33;;;;;;;;;;5087022;28;20032;-69
2022/07/08 01:13:09;;;;;;;4.35;2.40;;;;;;;;;;5069816;28;20036;-69
2022/07/08 01:15:35;;;;;;;4.25;2.72;;;;;;;;;;5083981;28;20032;-70
2022/07/08 01:18:01;;;;;;;4.47;2.60;;;;;;;;;;5086250;28;20033;-70
2022/07/08 01:20:27;;;;;;;5.45;2.70;;;;;;;;;;5078757;28;20048;-69
2022/07/08 01:22:55;;;;;;;6.53;3.50;;;;;;;;;;5066731;28;20041;-72
2022/07/08 01:25:22;;;;;;;8.40;4.53;;;;;;;;;;5079108;28;20037;-69
2022/07/08 01:27:48;;;;;;;7.13;3.92;;;;;;;;;;5087096;28;20013;-68
2022/07/08 01:30:14;;;;;;;8.88;3.88;;;;;;;;;;5080116;28;20005;-69
2022/07/08 01:32:41;;;;;;;7.75;4.13;;;;;;;;;;5074053;28;20027;-68
2022/07/08 01:35:07;;;;;;;7.55;3.88;;;;;;;;;;5086936;28;20013;-69
2022/07/08 01:37:33;;;;;;;5.65;3.88;;;;;;;;;;5077223;28;20019;-68
2022/07/08 01:39:59;;;;;;;6.22;3.55;;;;;;;;;;5083683;28;20068;-68
2022/07/08 01:42:26;;;;;;;7.55;3.58;;;;;;;;;;5084493;28;20020;-69
2022/07/08 01:44:52;;;;;;;5.20;3.17;;;;;;;;;;5086374;28;20032;-75
2022/07/08 01:47:19;;;;;;;5.28;3.28;;;;;;;;;;5089101;28;20033;-72
2022/07/08 01:49:45;;;;;;;4.13;2.75;;;;;;;;;;5077099;28;20012;-72
2022/07/08 01:52:11;;;;;;;5.00;2.90;;;;;;;;;;5077195;28;20483;-71
2022/07/08 01:54:43;;;;;;;2.92;2.58;;;;;;;;;;5089955;28;20017;-72
2022/07/08 01:57:15;;;;;;;8.15;2.88;;;;;;;;;;5070914;28;20012;-76
2022/07/08 01:59:45;;;;;;;2.97;2.45;;;;;;;;;;5074843;28;20104;-70
2022/07/08 02:02:11;;;;;;;6.85;2.83;;;;;;;;;;5076014;28;20032;-71
2022/07/08 02:04:37;;;;;;;2.75;2.42;;;;;;;;;;5083504;28;20050;-69
2022/07/08 02:07:04;;;;;;;4.80;2.50;;;;;;;;;;5085588;28;20009;-68
2022/07/08 02:09:30;;;;;;;3.85;2.80;;;;;;;;;;5086622;28;20076;-73
2022/07/08 02:14:41;;;;;;;3.72;2.40;;;;;;;;;;5088168;28;20105;-68
2022/07/08 02:17:08;;;;;;;2.75;2.50;;;;;;;;;;5086296;28;20005;-70
2022/07/08 02:19:35;;;;;;;5.38;2.55;;;;;;;;;;5087300;28;20020;-70
2022/07/08 02:22:01;;;;;;;4.40;2.60;;;;;;;;;;5086613;28;20047;-69
2022/07/08 02:24:27;;;;;;;5.18;2.67;;;;;;;;;;5081938;28;20049;-68
2022/07/08 02:26:56;;;;;;;3.70;2.58;;;;;;;;;;5089576;28;20036;-74
2022/07/08 02:29:22;;;;;;;4.45;2.90;;;;;;;;;;5083588;28;20028;-70
2022/07/08 02:31:48;;;;;;;4.57;3.00;;;;;;;;;;5089568;28;20051;-68
2022/07/08 02:34:14;;;;;;;5.43;3.10;;;;;;;;;;5074529;28;20029;-70
2022/07/08 02:36:41;;;;;;;7.07;2.90;;;;;;;;;;5090636;28;20032;-69
2022/07/08 02:39:07;;;;;;;5.55;2.85;;;;;;;;;;5083002;28;20024;-68
2022/07/08 02:41:33;;;;;;;4.75;3.10;;;;;;;;;;5086473;28;20028;-68
2022/07/08 02:43:59;;;;;;;5.38;3.10;;;;;;;;;;5082817;28;20371;-69
2022/07/08 02:46:25;;;;;;;5.00;3.25;;;;;;;;;;5082001;28;20459;-74
2022/07/08 02:48:51;;;;;;;4.50;2.97;;;;;;;;;;5094869;28;20051;-70
2022/07/08 02:51:17;;;;;;;5.03;2.97;;;;;;;;;;5094225;28;20028;-70
2022/07/08 02:53:43;;;;;;;6.05;2.83;;;;;;;;;;5089831;28;20028;-74
2022/07/08 02:56:09;;;;;;;9.20;3.33;;;;;;;;;;5083903;28;20028;-72
2022/07/08 02:58:35;;;;;;;5.68;3.10;;;;;;;;;;5087265;28;20055;-74
2022/07/08 03:01:01;;;;;;;4.50;3.40;;;;;;;;;;5077480;28;20100;-69
2022/07/08 03:03:27;;;;;;;8.65;3.50;;;;;;;;;;5086391;28;20033;-74
2022/07/08 03:05:53;;;;;;;7.50;3.70;;;;;;;;;;5090527;28;20020;-75
2022/07/08 03:08:19;;;;;;;7.18;3.45;;;;;;;;;;5092254;28;20071;-69
2022/07/08 03:10:45;;;;;;;6.43;3.53;;;;;;;;;;5093024;28;20104;-68
2022/07/08 03:13:11;;;;;;;5.70;3.70;;;;;;;;;;5091312;28;20036;-76
2022/07/08 03:15:37;;;;;;;5.78;3.58;;;;;;;;;;5078903;28;20035;-69
2022/07/08 03:18:03;;;;;;;5.72;3.30;;;;;;;;;;5077089;28;20083;-77
2022/07/08 03:20:29;;;;;;;9.68;3.92;;;;;;;;;;5073109;28;20009;-73
2022/07/08 03:22:55;;;;;;;6.28;3.60;;;;;;;;;;5072430;28;20040;-77
2022/07/08 03:25:21;;;;;;;9.50;4.20;;;;;;;;;;5091356;28;20084;-70
2022/07/08 03:27:50;;;;;;;6.65;3.95;;;;;;;;;;5091799;28;20016;-76
2022/07/08 03:30:17;;;;;;;5.85;3.67;;;;;;;;;;5092625;28;20031;-68
2022/07/08 03:32:43;;;;;;;6.05;3.85;;;;;;;;;;5083533;28;20088;-74
2022/07/08 03:35:09;;;;;;;7.47;4.00;;;;;;;;;;5088624;28;20076;-76
2022/07/08 03:37:36;;;;;;;6.13;3.80;;;;;;;;;;5093064;28;20032;-79
2022/07/08 03:41:19;;;;;;;4.82;3.63;;;;;;;;;;5078990;28;20102;-70
2022/07/08 03:42:48;;;;;;;9.98;3.95;;;;;;;;;;5067627;28;20033;-71
2022/07/08 03:45:14;;;;;;;10.93;3.83;;;;;;;;;;5091245;28;20009;-69
2022/07/08 03:47:40;;;;;;;4.97;3.45;;;;;;;;;;5086950;28;20039;-77
2022/07/08 03:50:06;;;;;;;9.60;3.72;;;;;;;;;;5077346;28;20027;-69
2022/07/08 03:52:33;;;;;;;7.82;3.58;;;;;;;;;;5091711;28;20028;-69
2022/07/08 03:54:59;;;;;;;9.02;3.67;;;;;;;;;;5090703;28;20029;-69
2022/07/08 03:57:25;;;;;;;6.00;3.42;;;;;;;;;;5090972;28;20065;-70
2022/07/08 03:59:51;;;;;;;4.85;3.53;;;;;;;;;;5081126;28;20016;-69
2022/07/08 04:02:17;;;;;;;4.88;3.70;;;;;;;;;;5086486;28;20038;-73
2022/07/08 04:04:43;;;;;;;5.78;3.60;;;;;;;;;;5084880;28;20026;-69
2022/07/08 04:07:09;;;;;;;5.45;3.40;;;;;;;;;;5083283;28;20021;-73
2022/07/08 04:09:35;;;;;;;8.13;3.90;;;;;;;;;;5090582;28;20016;-69
2022/07/08 04:12:01;;;;;;;5.65;3.95;;;;;;;;;;5084935;28;20517;-73
2022/07/08 04:14:27;;;;;;;6.65;3.72;;;;;;;;;;5084309;28;20036;-78
2022/07/08 04:16:53;;;;;;;5.90;3.45;;;;;;;;;;5088289;28;20073;-74
2022/07/08 04:19:19;;;;;;;6.57;4.18;;;;;;;;;;5085389;28;20028;-70
2022/07/08 04:21:45;;;;;;;6.05;3.90;;;;;;;;;;5070216;28;20012;-75
2022/07/08 04:24:12;;;;;;;6.07;3.65;;;;;;;;;;5088886;28;20115;-68
2022/07/08 04:26:38;;;;;;;5.03;3.70;;;;;;;;;;5084809;28;20033;-70
2022/07/08 04:29:04;;;;;;;5.20;3.60;;;;;;;;;;5087004;28;20050;-69
2022/07/08 04:31:30;;;;;;;7.18;3.40;;;;;;;;;;5090331;28;20032;-68
2022/07/08 04:33:56;;;;;;;6.68;3.60;;;;;;;;;;5089243;28;20036;-75
2022/07/08 04:36:23;;;;;;;6.40;3.97;;;;;;;;;;5089661;28;20021;-70
2022/07/08 04:38:49;;;;;;;5.43;4.10;;;;;;;;;;5072846;28;20020;-69
2022/07/08 04:41:15;;;;;;;9.63;4.05;;;;;;;;;;5085300;28;20035;-72
2022/07/08 04:43:41;;;;;;;5.30;3.65;;;;;;;;;;5081292;28;20021;-68
2022/07/08 04:46:07;;;;;;;4.65;3.83;;;;;;;;;;5076480;28;20084;-71
2022/07/08 04:48:33;;;;;;;6.85;4.05;;;;;;;;;;5071375;28;20005;-68
2022/07/08 04:50:59;;;;;;;5.70;4.30;;;;;;;;;;5083105;28;20028;-71
2022/07/08 04:53:25;;;;;;;6.38;3.95;;;;;;;;;;5079404;28;20375;-67
2022/07/08 04:55:51;;;;;;;4.90;3.80;;;;;;;;;;5085333;28;20040;-74
2022/07/08 04:58:22;;;;;;;6.97;4.18;;;;;;;;;;5082195;28;20005;-76
2022/07/08 05:00:48;;;;;;;5.25;3.92;;;;;;;;;;5059689;28;20040;-68
2022/07/08 05:03:14;;;;;;;5.95;3.90;;;;;;;;;;5087808;28;20040;-68
2022/07/08 05:05:40;;;;;;;7.82;4.00;;;;;;;;;;5078428;28;20029;-68
2022/07/08 05:08:06;;;;;;;7.15;4.35;;;;;;;;;;5086648;28;20016;-69
2022/07/08 05:10:32;;;;;;;7.00;4.18;;;;;;;;;;5093433;28;20025;-72
2022/07/08 05:12:59;;;;;;;6.93;4.30;;;;;;;;;;5086113;28;20055;-71
2022/07/08 05:15:25;;;;;;;12.52;4.30;;;;;;;;;;5082925;28;20028;-68
2022/07/08 05:17:52;;;;;;;7.28;4.10;;;;;;;;;;5092780;28;20423;-69
2022/07/08 05:20:19;;;;;;;7.97;4.10;;;;;;;;;;5092679;28;20013;-69
2022/07/08 05:22:45;;;;;;;9.23;4.10;;;;;;;;;;5086772;28;20040;-68
2022/07/08 05:25:11;;;;;;;4.85;4.30;;;;;;;;;;5080655;28;20037;-67
2022/07/08 05:27:38;;;;;;;7.60;3.90;;;;;;;;;;5095449;28;20000;-70
2022/07/08 05:30:08;;;;;;;6.40;4.10;;;;;;;;;;5092504;28;20035;-73
2022/07/08 05:32:35;;;;;;;6.53;4.40;;;;;;;;;;5091755;28;20012;-73
2022/07/08 05:35:01;;;;;;;7.03;4.40;;;;;;;;;;5083028;28;20029;-77
2022/07/08 05:37:28;;;;;;;5.32;4.07;;;;;;;;;;5081320;28;20021;-75
2022/07/08 05:39:54;;;;;;;6.72;3.78;;;;;;;;;;5079146;28;20021;-73
2022/07/08 05:42:20;;;;;;;5.18;4.15;;;;;;;;;;5086295;28;20013;-75
2022/07/08 05:44:46;;;;;;;7.10;4.45;;;;;;;;;;5068591;28;20021;-70
2022/07/08 05:47:13;;;;;;;5.82;4.00;;;;;;;;;;5074411;28;20025;-69
2022/07/08 05:49:40;;;;;;;7.45;4.53;;;;;;;;;;5070534;28;20033;-75
2022/07/08 05:52:08;;;;;;;8.10;4.80;;;;;;;;;;5083325;28;20048;-71
2022/07/08 05:54:34;;;;;;;9.43;4.45;;;;;;;;;;5084675;28;20036;-71
2022/07/08 05:57:00;;;;;;;7.53;5.05;;;;;;;;;;5088883;28;20441;-70
2022/07/08 05:59:27;;;;;;;8.68;6.07;;;;;;;;;;5092395;28;20375;-74
2022/07/08 06:01:53;;;;;;;9.23;5.72;;;;;;;;;;5090757;28;20029;-79
2022/07/08 06:04:19;;;;;;;8.63;4.78;;;;;;;;;;5090030;28;20037;-78
2022/07/08 06:06:45;;;;;;;7.07;4.93;;;;;;;;;;5091839;28;20094;-78
2022/07/08 06:09:11;;;;;;;7.10;4.45;;;;;;;;;;5078370;28;20020;-68
2022/07/08 06:11:38;;;;;;;6.57;4.40;;;;;;;;;;5093369;28;20044;-78
2022/07/08 06:14:04;;;;;;;7.85;4.93;;;;;;;;;;5094469;28;20021;-76
2022/07/08 06:16:30;;;;;;;6.10;4.45;;;;;;;;;;5093795;28;20032;-71
2022/07/08 06:19:18;;;;;;;5.70;4.35;;;;;;;;;;5085879;28;20036;-78
2022/07/08 06:22:14;;;;;;;8.15;4.32;;;;;;;;;;5166678;23;20045;-80
2022/07/08 06:24:43;;;;;;;5.85;4.30;;;;;;;;;;5068743;28;20512;-70
2022/07/08 06:27:14;;;;;;;6.63;4.30;;;;;;;;;;5042507;28;20055;-71
2022/07/08 06:29:40;;;;;;;6.75;4.20;;;;;;;;;;5057237;28;20028;-77
2022/07/08 06:32:10;;;;;;;8.07;4.65;;;;;;;;;;5054415;28;20044;-81
2022/07/08 06:34:37;;;;;;;6.90;4.75;;;;;;;;;;5059545;28;20028;-73
2022/07/08 06:37:03;;;;;;;7.35;4.80;;;;;;;;;;5062405;28;20029;-74
2022/07/08 06:39:32;;;;;;;9.23;4.65;;;;;;;;;;5063111;28;20065;-76
2022/07/08 06:41:59;;;;;;;7.45;5.15;;;;;;;;;;5054116;28;20037;-74
2022/07/08 06:44:25;;;;;;;6.78;4.85;;;;;;;;;;5041364;28;20030;-71
2022/07/08 06:46:51;;;;;;;9.00;4.95;;;;;;;;;;5068128;28;20036;-73
2022/07/08 06:49:17;;;;;;;8.25;4.90;;;;;;;;;;5062773;28;20071;-76
2022/07/08 06:51:44;;;;;;;10.18;5.10;;;;;;;;;;5063648;28;20024;-75
2022/07/08 06:56:56;;;;;;;7.97;5.05;;;;;;;;;;5070741;28;20032;-75
2022/07/08 06:59:22;;;;;;;10.48;5.13;;;;;;;;;;5059823;28;20025;-74
2022/07/08 07:01:48;;;;;;;8.13;4.60;;;;;;;;;;5053598;28;20032;-73
2022/07/08 07:04:15;;;;;;;8.45;4.88;;;;;;;;;;5043129;28;20052;-75
2022/07/08 07:06:41;;;;;;;6.10;4.43;;;;;;;;;;5064139;28;20021;-77
2022/07/08 07:09:07;;;;;;;7.00;4.70;;;;;;;;;;5061932;28;20056;-78
2022/07/08 07:11:33;;;;;;;8.05;4.78;;;;;;;;;;5064650;28;20386;-76
2022/07/08 07:14:01;;;;;;;8.38;4.15;;;;;;;;;;5071988;28;20028;-75
2022/07/08 07:16:27;;;;;;;6.28;4.53;;;;;;;;;;5054474;28;20075;-79
2022/07/08 07:18:53;;;;;;;8.30;4.40;;;;;;;;;;5053244;28;20086;-75
2022/07/08 07:21:25;;;;;;;9.60;4.20;;;;;;;;;;5061100;28;20518;-80
2022/07/08 07:23:51;;;;;;;6.10;4.28;;;;;;;;;;5068899;28;20047;-78
2022/07/08 07:26:20;;;;;;;17.75;4.55;;;;;;;;;;5067945;28;20078;-76
2022/07/08 07:28:52;;;;;;;10.70;4.75;;;;;;;;;;5068292;28;20041;-73
2022/07/08 07:31:23;;;;;;;24.77;5.45;;;;;;;;;;5063762;28;20023;-75
2022/07/08 07:36:51;;;;;;;69.85;10.15;;;;;;;;;;4995167;28;20476;-76
2022/07/08 07:39:17;;;;;;;32.42;6.45;;;;;;;;;;4993794;28;20034;-73
2022/07/08 07:41:44;;;;;;;23.45;5.97;;;;;;;;;;4991110;28;20500;-79
2022/07/08 07:44:20;;;;;;;14.50;5.05;;;;;;;;;;4986334;28;20073;-73
2022/07/08 07:46:46;;;;;;;15.45;4.60;;;;;;;;;;4985490;28;20126;-73
2022/07/08 07:49:13;;;;;;;14.13;5.28;;;;;;;;;;4991596;28;20038;-81
2022/07/08 07:51:39;;;;;;;8.27;4.72;;;;;;;;;;4994128;28;20384;-78
2022/07/08 07:54:05;;;;;;;10.73;4.18;;;;;;;;;;4991492;28;20042;-78
2022/07/08 07:56:31;;;;;;;16.92;4.85;;;;;;;;;;4985509;28;20038;-76
2022/07/08 07:58:59;;;;;;;9.27;4.57;;;;;;;;;;4991103;28;20141;-77
2022/07/08 08:01:25;;;;;;;6.57;4.30;;;;;;;;;;4991551;28;20065;-75
2022/07/08 08:03:52;;;;;;;14.35;4.95;;;;;;;;;;4990828;28;20133;-76
2022/07/08 08:06:18;;;;;;;9.30;4.45;;;;;;;;;;4991943;28;20042;-76
2022/07/08 08:08:44;;;;;;;18.23;11.90;;;;;;;;;;4989610;28;20077;-77
2022/07/08 08:11:29;;;;;;;;;;;;;;;;;;;;;
2022/07/08 08:13:58;;;;;;;8.05;3.75;;;;;;;;;;5051992;28;20039;-71
2022/07/08 08:16:24;;;;;;;9.68;4.78;;;;;;;;;;5061540;28;20029;-73
2022/07/08 08:18:50;;;;;;;13.68;5.85;;;;;;;;;;5055552;28;20021;-74
2022/07/08 08:21:16;;;;;;;6.78;4.43;;;;;;;;;;5067332;28;20044;-74
2022/07/08 08:23:48;;;;;;;11.38;5.43;;;;;;;;;;5062038;28;20036;-73
2022/07/08 08:26:14;;;;;;;4.93;3.88;;;;;;;;;;5064304;28;20021;-77
2022/07/08 08:28:40;;;;;;;13.23;4.30;;;;;;;;;;5038463;28;20091;-76
2022/07/08 08:31:06;;;;;;;6.25;3.90;;;;;;;;;;5060067;28;20033;-85
2022/07/08 08:33:32;;;;;;;10.50;5.05;;;;;;;;;;5054609;28;20076;-75
2022/07/08 08:36:04;;;;;;;33.25;5.40;;;;;;;;;;5054224;28;20093;-82
2022/07/08 08:38:36;;;;;;;7.43;4.00;;;;;;;;;;5044962;28;20041;-84
2022/07/08 08:41:02;;;;;;;32.97;6.35;;;;;;;;;;5066329;28;20116;-84
2022/07/08 08:43:28;;;;;;;7.90;3.83;;;;;;;;;;5054431;28;20033;-83
2022/07/08 08:45:55;;;;;;;15.02;4.45;;;;;;;;;;5054079;28;20095;-82
2022/07/08 08:48:25;;;;;;;83.93;9.05;;;;;;;;;;5055133;28;20036;-83
2022/07/08 08:50:55;;;;;;;103.47;11.48;;;;;;;;;;5053789;28;20048;-84
2022/07/08 08:53:44;;;;;;;80.47;9.70;;;;;;;;;;5061349;28;20062;-82
2022/07/08 08:56:18;;;;;;;29.05;5.68;;;;;;;;;;4965763;28;20045;-75
2022/07/08 08:58:46;;;;;;;;;;;;;;;;;;4955768;28;20071;-81
2022/07/08 09:01:25;;;;;;;105.03;14.50;;;;;;;;;;4956220;28;19912;-81
2022/07/08 09:03:51;;;;;;;28.27;6.75;;;;;;;;;;4959611;28;20398;-83
2022/07/08 09:06:23;;;;;;;58.83;6.93;;;;;;;;;;4954593;28;20034;-72
2022/07/08 09:09:05;;;;;;;11.98;4.50;;;;;;;;;;4952662;28;20138;-77
2022/07/08 09:11:33;;;;;;;21.48;5.28;;;;;;;;;;4952743;28;20495;-82
2022/07/08 09:14:34;;;;;;;5.82;3.33;;;;;;;;;;4965911;28;20039;-78
2022/07/08 09:17:13;;;;;;;17.40;5.72;;;;;;;;;;4935714;29;20023;-76
2022/07/08 09:19:41;;;;;;;12.73;4.55;;;;;;;;;;4951207;29;20038;-80
2022/07/08 09:22:08;;;;;;;9.02;4.25;;;;;;;;;;4951640;29;20051;-81
2022/07/08 09:24:35;;;;;;;17.98;7.78;;;;;;;;;;4951815;29;20043;-80
2022/07/08 09:27:05;;;;;;;11.68;5.25;;;;;;;;;;4951793;29;20027;-82
2022/07/08 09:29:31;;;;;;;9.05;4.13;;;;;;;;;;4952025;29;20039;-82
2022/07/08 09:32:16;;;;;;;10.70;4.00;;;;;;;;;;4945248;28;20042;-71
2022/07/08 09:34:42;;;;;;;11.55;4.05;;;;;;;;;;4986863;28;20034;-79
2022/07/08 09:37:13;;;;;;;7.13;4.13;;;;;;;;;;4994340;28;20085;-78
2022/07/08 09:39:39;;;;;;;9.68;3.83;;;;;;;;;;4995492;28;20025;-79
2022/07/08 09:42:09;;;;;;;7.35;3.72;;;;;;;;;;4999608;28;20023;-83
2022/07/08 09:44:38;;;;;;;10.27;3.80;;;;;;;;;;5001619;28;20082;-85
2022/07/08 09:50:48;;;;;;;7.82;3.63;;;;;;;;;;4920491;29;20140;-82
2022/07/08 09:53:32;;;;;;;37.15;4.72;;;;;;;;;;4932583;29;20035;-79
2022/07/08 09:55:58;;;;;;;16.42;3.85;;;;;;;;;;4926725;29;20035;-83
2022/07/08 09:58:25;;;;;;;54.90;8.27;;;;;;;;;;4933729;29;20043;-83
2022/07/08 10:00:53;;;;;;;8.68;3.60;;;;;;;;;;4933707;29;20032;-83
2022/07/08 10:03:43;;;;;;;198.40;15.90;;;;;;;;;;4933492;29;20069;-83
2022/07/08 10:06:10;;;;;;;68.13;7.13;;;;;;;;;;4932191;29;20119;-85
2022/07/08 10:08:37;;;;;;;91.13;9.27;;;;;;;;;;4933790;29;20036;-72
2022/07/08 10:11:29;;;;;;;57.00;7.05;;;;;;;;;;4932934;28;20501;-79
2022/07/08 10:13:56;;;;;;;50.72;6.40;;;;;;;;;;4930742;29;20036;-85
2022/07/08 10:16:22;;;;;;;38.92;6.22;;;;;;;;;;4932957;29;20056;-83
2022/07/08 10:18:59;;;;;;;18.92;4.40;;;;;;;;;;4933489;29;20091;-82
2022/07/08 10:21:29;;;;;;;36.35;5.15;;;;;;;;;;4999326;28;20615;-83
2022/07/08 10:23:56;;;;;;;10.85;3.70;;;;;;;;;;4982786;28;20407;-81
2022/07/08 10:26:28;;;;;;;29.58;4.97;;;;;;;;;;5026982;28;20034;-80
2022/07/08 10:29:01;;;;;;;10.87;3.47;;;;;;;;;;5026806;28;20022;-84
2022/07/08 10:31:29;;;;;;;35.22;4.72;;;;;;;;;;5033991;28;20041;-80
2022/07/08 10:34:02;;;;;;;16.73;4.55;;;;;;;;;;5024831;28;20061;-82
2022/07/08 10:36:28;;;;;;;15.02;3.80;;;;;;;;;;5027284;28;20104;-84
2022/07/08 10:39:05;;;;;;;7.47;4.57;;;;;;;;;;5024292;28;20088;-77
2022/07/08 10:41:31;;;;;;;7.95;3.33;;;;;;;;;;5031129;28;20030;-84
2022/07/08 10:44:02;;;;;;;5.95;3.97;;;;;;;;;;5032572;28;20077;-82
2022/07/08 10:46:29;;;;;;;9.15;5.15;;;;;;;;;;5026217;28;20030;-79
2022/07/08 10:48:59;;;;;;;7.22;4.68;;;;;;;;;;5013325;28;20072;-77
2022/07/08 10:51:25;;;;;;;10.75;6.05;;;;;;;;;;5013004;28;20491;-83
2022/07/08 10:53:51;;;;;;;7.85;4.78;;;;;;;;;;5024329;28;20081;-84
2022/07/08 10:56:36;;;;;;;7.43;4.15;;;;;;;;;;5029349;28;20405;-84
2022/07/08 10:59:38;;;;;;;12.02;4.28;;;;;;;;;;5022922;28;20124;-82
2022/07/08 11:02:16;;;;;;;6.43;3.80;;;;;;;;;;5019596;28;20084;-83
2022/07/08 11:04:53;;;;;;;5.30;3.85;;;;;;;;;;5016401;28;20510;-75
2022/07/08 11:07:40;;;;;;;;;;;;;;;;;;;;;
2022/07/08 11:10:13;;;;;;;5.93;3.30;;;;;;;;;;5017491;28;20026;-83
2022/07/08 11:15:25;;;;;;;5.22;2.95;;;;;;;;;;4991456;28;19913;-83
2022/07/08 11:17:51;;;;;;;7.22;3.30;;;;;;;;;;4977153;28;20071;-82
2022/07/08 11:20:18;;;;;;;7.53;3.38;;;;;;;;;;4993313;28;20038;-82
2022/07/08 11:22:45;;;;;;;5.55;3.10;;;;;;;;;;5009534;28;20060;-82
2022/07/08 11:25:16;;;;;;;7.75;3.67;;;;;;;;;;5013721;28;20492;-79
2022/07/08 11:27:47;;;;;;;7.60;3.42;;;;;;;;;;5011612;28;20045;-82
2022/07/08 11:30:17;;;;;;;4.65;3.05;;;;;;;;;;5008516;28;20438;-83
2022/07/08 11:32:47;;;;;;;7.32;3.03;;;;;;;;;;5011914;28;20041;-79
2022/07/08 11:35:13;;;;;;;5.28;3.03;;;;;;;;;;5014069;28;20034;-81
2022/07/08 11:37:40;;;;;;;7.55;3.15;;;;;;;;;;5013971;28;20361;-82
2022/07/08 11:40:09;;;;;;;5.43;3.28;;;;;;;;;;5009712;28;20037;-83
2022/07/08 11:42:39;;;;;;;9.35;4.28;;;;;;;;;;5013018;28;20069;-82
2022/07/08 11:45:06;;;;;;;7.63;4.28;;;;;;;;;;5011925;28;20057;-80
2022/07/08 11:47:32;;;;;;;7.45;3.78;;;;;;;;;;5013400;28;20046;-82
2022/07/08 11:49:58;;;;;;;6.70;3.08;;;;;;;;;;5011983;28;20068;-76
2022/07/08 11:52:34;;;;;;;5.47;2.90;;;;;;;;;;5025011;28;20395;-84
2022/07/08 11:55:01;;;;;;;6.30;2.90;;;;;;;;;;5037996;28;20074;-73
2022/07/08 11:57:43;;;;;;;8.52;2.83;;;;;;;;;;5045057;28;20078;-79
2022/07/08 12:00:17;;;;;;;7.30;2.78;;;;;;;;;;5037833;28;20097;-78
2022/07/08 12:02:43;;;;;;;4.68;3.00;;;;;;;;;;5039801;28;20502;-75
2022/07/08 12:05:10;;;;;;;8.25;3.00;;;;;;;;;;5043464;28;20098;-83
2022/07/08 12:07:57;;;;;;;7.22;4.05;;;;;;;;;;5035258;28;20360;-83
2022/07/08 12:10:23;;;;;;;5.57;3.25;;;;;;;;;;5049334;28;20151;-83
2022/07/08 12:12:57;;;;;;;4.43;2.92;;;;;;;;;;5043971;28;20053;-79
2022/07/08 12:15:31;;;;;;;3.65;2.90;;;;;;;;;;5042855;28;20026;-82
2022/07/08 12:18:17;;;;;;;6.25;3.03;;;;;;;;;;5033312;28;20390;-82
2022/07/08 12:20:44;;;;;;;8.68;2.95;;;;;;;;;;5049268;28;20040;-82
2022/07/08 12:23:12;;;;;;;4.00;2.95;;;;;;;;;;5065080;28;20048;-83
2022/07/08 12:25:49;;;;;;;4.85;3.15;;;;;;;;;;5061106;28;20017;-80
2022/07/08 12:28:24;;;;;;;7.28;3.33;;;;;;;;;;5054428;28;20025;-84
2022/07/08 12:30:50;;;;;;;4.63;2.80;;;;;;;;;;5054336;28;20417;-75
2022/07/08 12:33:25;;;;;;;6.93;3.17;;;;;;;;;;5055884;28;20021;-77
2022/07/08 12:35:52;;;;;;;6.43;3.00;;;;;;;;;;5057260;28;20048;-79
2022/07/08 12:38:22;;;;;;;7.07;3.08;;;;;;;;;;5059282;28;20019;-83
2022/07/08 12:40:48;;;;;;;6.95;2.90;;;;;;;;;;5057349;28;20032;-77
2022/07/08 12:43:15;;;;;;;6.55;3.10;;;;;;;;;;5055891;28;20136;-75
2022/07/08 12:45:42;;;;;;;7.50;3.00;;;;;;;;;;5052791;28;20033;-72
2022/07/08 12:48:08;;;;;;;10.63;3.25;;;;;;;;;;5064967;28;20021;-77
2022/07/08 12:50:37;;;;;;;16.58;3.70;;;;;;;;;;5052619;28;20041;-74
2022/07/08 12:53:03;;;;;;;11.95;3.28;;;;;;;;;;5054607;28;20404;-72
2022/07/08 12:55:32;;;;;;;8.75;2.80;;;;;;;;;;5057008;28;20021;-71
2022/07/08 12:57:58;;;;;;;19.70;3.92;;;;;;;;;;5039391;28;20033;-72
2022/07/08 13:00:24;;;;;;;8.95;3.38;;;;;;;;;;5048310;28;20106;-75
2022/07/08 13:02:50;;;;;;;8.35;4.40;;;;;;;;;;5054191;28;20058;-75
2022/07/08 13:05:16;;;;;;;8.15;3.70;;;;;;;;;;5049735;28;20036;-73
2022/07/08 13:07:43;;;;;;;10.77;3.47;;;;;;;;;;5056865;28;20021;-73
2022/07/08 13:10:09;;;;;;;8.98;3.95;;;;;;;;;;5058929;28;20023;-76
2022/07/08 13:12:36;;;;;;;5.03;2.88;;;;;;;;;;5053686;28;20075;-72
2022/07/08 13:15:02;;;;;;;7.82;3.05;;;;;;;;;;5053742;28;20074;-79
2022/07/08 13:17:28;;;;;;;5.57;2.90;;;;;;;;;;5038457;28;20028;-81
2022/07/08 13:19:54;;;;;;;4.07;2.90;;;;;;;;;;5051683;28;20037;-79
2022/07/08 13:22:20;;;;;;;8.93;3.60;;;;;;;;;;5056329;28;20045;-80
2022/07/08 13:24:46;;;;;;;7.30;3.17;;;;;;;;;;5054181;28;20032;-76
2022/07/08 13:27:12;;;;;;;11.70;3.22;;;;;;;;;;5070197;28;20363;-80
2022/07/08 13:29:38;;;;;;;6.00;3.10;;;;;;;;;;5052084;28;20536;-75
2022/07/08 13:32:04;;;;;;;6.05;3.15;;;;;;;;;;5063097;28;20049;-73
2022/07/08 13:34:31;;;;;;;6.45;2.95;;;;;;;;;;5043167;28;20041;-74
2022/07/08 13:36:57;;;;;;;5.60;2.88;;;;;;;;;;5061940;28;20028;-74
2022/07/08 13:39:23;;;;;;;5.82;3.33;;;;;;;;;;5067722;28;20048;-77
2022/07/08 13:41:49;;;;;;;5.85;2.88;;;;;;;;;;5060550;28;20477;-75
2022/07/08 13:44:15;;;;;;;8.13;3.25;;;;;;;;;;5060727;28;20116;-75
2022/07/08 13:46:41;;;;;;;5.45;3.17;;;;;;;;;;5055977;28;20021;-73
2022/07/08 13:49:07;;;;;;;5.65;3.00;;;;;;;;;;5045275;28;20036;-83
2022/07/08 13:51:33;;;;;;;8.27;2.97;;;;;;;;;;5049660;28;20029;-82
2022/07/08 13:53:59;;;;;;;6.72;2.95;;;;;;;;;;5058972;28;20378;-81
2022/07/08 13:56:26;;;;;;;8.73;3.42;;;;;;;;;;5040971;28;20025;-78
2022/07/08 13:58:53;;;;;;;4.88;2.90;;;;;;;;;;5061805;28;20151;-74
2022/07/08 14:01:19;;;;;;;5.30;2.80;;;;;;;;;;5045270;28;20021;-78
2022/07/08 14:03:46;;;;;;;5.72;2.65;;;;;;;;;;5048497;28;20037;-73
2022/07/08 14:06:15;;;;;;;5.22;2.80;;;;;;;;;;5058927;28;20029;-73
2022/07/08 14:08:41;;;;;;;5.07;2.80;;;;;;;;;;5064848;28;20060;-80
2022/07/08 14:11:08;;;;;;;4.20;2.70;;;;;;;;;;5064970;28;20027;-74
2022/07/08 14:13:34;;;;;;;9.45;3.20;;;;;;;;;;5063633;28;20035;-74
2022/07/08 14:16:02;;;;;;;6.75;2.95;;;;;;;;;;5059082;28;20047;-84
2022/07/08 14:18:28;;;;;;;5.25;3.35;;;;;;;;;;5055812;28;20035;-81
2022/07/08 14:20:55;;;;;;;6.75;3.20;;;;;;;;;;5057209;28;20044;-82
2022/07/08 14:23:21;;;;;;;5.00;3.13;;;;;;;;;;5047351;28;20099;-78
2022/07/08 14:25:47;;;;;;;12.05;5.47;;;;;;;;;;5048492;28;20035;-80
2022/07/08 14:28:16;;;;;;;6.40;3.22;;;;;;;;;;5056123;28;20020;-83
2022/07/08 14:30:43;;;;;;;7.90;3.00;;;;;;;;;;5063594;28;20029;-80
2022/07/08 14:33:09;;;;;;;6.22;3.10;;;;;;;;;;5059973;28;20017;-84
2022/07/08 14:35:36;;;;;;;4.78;2.70;;;;;;;;;;5069828;28;20028;-75
2022/07/08 14:38:02;;;;;;;4.38;2.88;;;;;;;;;;5069664;28;20051;-73
2022/07/08 14:40:29;;;;;;;3.38;2.72;;;;;;;;;;5068909;28;20105;-75
2022/07/08 14:42:56;;;;;;;4.25;2.80;;;;;;;;;;5069813;28;20040;-75
2022/07/08 14:45:22;;;;;;;5.53;2.80;;;;;;;;;;5061101;28;20383;-77
2022/07/08 14:47:49;;;;;;;3.85;2.45;;;;;;;;;;5061168;28;20025;-77
2022/07/08 14:50:16;;;;;;;8.57;2.58;;;;;;;;;;5064990;28;20040;-79
2022/07/08 14:52:42;;;;;;;5.00;2.70;;;;;;;;;;5062670;28;20033;-78
2022/07/08 14:55:08;;;;;;;6.03;2.78;;;;;;;;;;5059744;28;20139;-77
2022/07/08 14:57:34;;;;;;;4.38;2.40;;;;;;;;;;5069217;28;20035;-76
2022/07/08 15:00:01;;;;;;;4.13;2.50;;;;;;;;;;5066463;28;20037;-80
2022/07/08 15:02:27;;;;;;;4.72;2.92;;;;;;;;;;5065595;28;20029;-73
2022/07/08 15:04:53;;;;;;;5.43;2.67;;;;;;;;;;5067861;28;20025;-73